sensor_id;sensor_type;location;lat;lon;timestamp;P1;durP1;ratioP1;P2;durP2;ratioP2
20525;SDS011;10421;49.142;9.232;2023-04-29T00:00:12;11.47;;;6.77;;
20525;SDS011;10421;49.142;9.232;2023-04-29T00:02:41;6.87;;;4.53;;
20525;SDS011;10421;49.142;9.232;2023-04-29T00:05:07;6.70;;;3.87;;
20525;SDS011;10421;49.142;9.232;2023-04-29T00:07:34;5.60;;;3.73;;
20525;SDS011;10421;49.142;9.232;2023-04-29T00:10:02;6.20;;;3.83;;
20525;SDS011;10421;49.142;9.232;2023-04-29T00:12:29;3.60;;;3.27;;
20525;SDS011;10421;49.142;9.232;2023-04-29T00:14:56;6.63;;;4.73;;
20525;SDS011;10421;49.142;9.232;2023-04-29T00:17:23;8.07;;;5.10;;
20525;SDS011;10421;49.142;9.232;2023-04-29T00:19:51;5.53;;;3.93;;
20525;SDS011;10421;49.142;9.232;2023-04-29T00:22:18;8.63;;;3.80;;
20525;SDS011;10421;49.142;9.232;2023-04-29T00:24:45;4.77;;;3.50;;
20525;SDS011;10421;49.142;9.232;2023-04-29T00:27:12;3.20;;;2.67;;
20525;SDS011;10421;49.142;9.232;2023-04-29T00:29:40;3.83;;;3.00;;
20525;SDS011;10421;49.142;9.232;2023-04-29T00:32:07;3.90;;;2.97;;
20525;SDS011;10421;49.142;9.232;2023-04-29T00:34:34;7.80;;;4.67;;
20525;SDS011;10421;49.142;9.232;2023-04-29T00:37:02;5.80;;;3.73;;
20525;SDS011;10421;49.142;9.232;2023-04-29T00:39:29;5.23;;;3.57;;
20525;SDS011;10421;49.142;9.232;2023-04-29T00:41:56;5.50;;;3.30;;
20525;SDS011;10421;49.142;9.232;2023-04-29T00:44:22;3.20;;;2.90;;
20525;SDS011;10421;49.142;9.232;2023-04-29T00:46:49;3.37;;;2.90;;
20525;SDS011;10421;49.142;9.232;2023-04-29T00:49:16;4.10;;;2.80;;
20525;SDS011;10421;49.142;9.232;2023-04-29T00:51:43;4.03;;;3.10;;
20525;SDS011;10421;49.142;9.232;2023-04-29T00:54:11;2.93;;;2.73;;
20525;SDS011;10421;49.142;9.232;2023-04-29T00:56:38;3.40;;;2.70;;
20525;SDS011;10421;49.142;9.232;2023-04-29T00:59:06;3.90;;;3.07;;
20525;SDS011;10421;49.142;9.232;2023-04-29T01:01:34;4.93;;;3.90;;
20525;SDS011;10421;49.142;9.232;2023-04-29T01:04:02;3.43;;;2.77;;
20525;SDS011;10421;49.142;9.232;2023-04-29T01:06:34;4.80;;;2.90;;
20525;SDS011;10421;49.142;9.232;2023-04-29T01:09:16;5.70;;;2.97;;
20525;SDS011;10421;49.142;9.232;2023-04-29T01:11:52;5.60;;;3.73;;
20525;SDS011;10421;49.142;9.232;2023-04-29T01:14:28;5.00;;;3.43;;
20525;SDS011;10421;49.142;9.232;2023-04-29T01:16:58;5.43;;;3.30;;
20525;SDS011;10421;49.142;9.232;2023-04-29T01:19:32;3.57;;;2.73;;
20525;SDS011;10421;49.142;9.232;2023-04-29T01:22:10;3.70;;;2.80;;
20525;SDS011;10421;49.142;9.232;2023-04-29T01:24:39;4.67;;;3.37;;
20525;SDS011;10421;49.142;9.232;2023-04-29T01:27:09;3.40;;;3.00;;
20525;SDS011;10421;49.142;9.232;2023-04-29T01:29:43;4.80;;;3.30;;
20525;SDS011;10421;49.142;9.232;2023-04-29T01:32:16;4.70;;;2.90;;
20525;SDS011;10421;49.142;9.232;2023-04-29T01:34:51;3.60;;;2.37;;
20525;SDS011;10421;49.142;9.232;2023-04-29T01:37:27;4.90;;;3.33;;
20525;SDS011;10421;49.142;9.232;2023-04-29T01:40:04;4.47;;;3.13;;
20525;SDS011;10421;49.142;9.232;2023-04-29T01:42:38;3.37;;;2.90;;
20525;SDS011;10421;49.142;9.232;2023-04-29T01:45:10;3.70;;;2.90;;
20525;SDS011;10421;49.142;9.232;2023-04-29T01:47:39;5.43;;;2.90;;
20525;SDS011;10421;49.142;9.232;2023-04-29T01:50:07;4.20;;;3.03;;
20525;SDS011;10421;49.142;9.232;2023-04-29T01:52:34;6.30;;;4.53;;
20525;SDS011;10421;49.142;9.232;2023-04-29T01:55:03;5.77;;;4.17;;
20525;SDS011;10421;49.142;9.232;2023-04-29T01:57:30;5.77;;;4.23;;
20525;SDS011;10421;49.142;9.232;2023-04-29T01:59:58;8.90;;;3.87;;
20525;SDS011;10421;49.142;9.232;2023-04-29T02:02:26;3.83;;;3.30;;
20525;SDS011;10421;49.142;9.232;2023-04-29T02:04:52;4.90;;;3.57;;
20525;SDS011;10421;49.142;9.232;2023-04-29T02:07:19;3.83;;;3.20;;
20525;SDS011;10421;49.142;9.232;2023-04-29T02:09:46;3.50;;;3.10;;
20525;SDS011;10421;49.142;9.232;2023-04-29T02:12:15;8.60;;;3.60;;
20525;SDS011;10421;49.142;9.232;2023-04-29T02:14:42;3.70;;;2.97;;
20525;SDS011;10421;49.142;9.232;2023-04-29T02:17:08;3.60;;;2.70;;
20525;SDS011;10421;49.142;9.232;2023-04-29T02:19:35;6.37;;;4.63;;
20525;SDS011;10421;49.142;9.232;2023-04-29T02:22:02;4.73;;;3.40;;
20525;SDS011;10421;49.142;9.232;2023-04-29T02:24:29;5.00;;;3.53;;
20525;SDS011;10421;49.142;9.232;2023-04-29T02:26:55;3.60;;;3.20;;
20525;SDS011;10421;49.142;9.232;2023-04-29T02:29:24;4.43;;;3.43;;
20525;SDS011;10421;49.142;9.232;2023-04-29T02:31:53;4.33;;;3.30;;
20525;SDS011;10421;49.142;9.232;2023-04-29T02:34:20;5.10;;;3.70;;
20525;SDS011;10421;49.142;9.232;2023-04-29T02:36:48;3.60;;;2.97;;
20525;SDS011;10421;49.142;9.232;2023-04-29T02:39:14;2.77;;;2.47;;
20525;SDS011;10421;49.142;9.232;2023-04-29T02:41:41;4.00;;;3.10;;
20525;SDS011;10421;49.142;9.232;2023-04-29T02:44:08;4.23;;;3.23;;
20525;SDS011;10421;49.142;9.232;2023-04-29T02:46:36;4.43;;;3.47;;
20525;SDS011;10421;49.142;9.232;2023-04-29T02:49:04;3.93;;;2.83;;
20525;SDS011;10421;49.142;9.232;2023-04-29T02:51:31;5.80;;;4.03;;
20525;SDS011;10421;49.142;9.232;2023-04-29T02:53:58;3.43;;;3.10;;
20525;SDS011;10421;49.142;9.232;2023-04-29T02:56:25;3.10;;;2.80;;
20525;SDS011;10421;49.142;9.232;2023-04-29T02:58:51;4.70;;;2.97;;
20525;SDS011;10421;49.142;9.232;2023-04-29T03:01:18;6.63;;;3.80;;
20525;SDS011;10421;49.142;9.232;2023-04-29T03:03:47;3.60;;;2.97;;
20525;SDS011;10421;49.142;9.232;2023-04-29T03:06:14;7.67;;;4.90;;
20525;SDS011;10421;49.142;9.232;2023-04-29T03:08:40;5.37;;;4.30;;
20525;SDS011;10421;49.142;9.232;2023-04-29T03:11:07;9.67;;;6.03;;
20525;SDS011;10421;49.142;9.232;2023-04-29T03:13:34;8.63;;;6.00;;
20525;SDS011;10421;49.142;9.232;2023-04-29T03:16:01;7.80;;;5.47;;
20525;SDS011;10421;49.142;9.232;2023-04-29T03:18:28;7.23;;;5.77;;
20525;SDS011;10421;49.142;9.232;2023-04-29T03:20:56;8.50;;;5.80;;
20525;SDS011;10421;49.142;9.232;2023-04-29T03:23:23;10.30;;;5.83;;
20525;SDS011;10421;49.142;9.232;2023-04-29T03:25:50;15.37;;;8.47;;
20525;SDS011;10421;49.142;9.232;2023-04-29T03:28:19;10.50;;;7.10;;
20525;SDS011;10421;49.142;9.232;2023-04-29T03:30:46;12.37;;;8.10;;
20525;SDS011;10421;49.142;9.232;2023-04-29T03:33:12;11.77;;;7.90;;
20525;SDS011;10421;49.142;9.232;2023-04-29T03:35:39;12.63;;;8.17;;
20525;SDS011;10421;49.142;9.232;2023-04-29T03:38:07;14.43;;;8.20;;
20525;SDS011;10421;49.142;9.232;2023-04-29T03:40:34;13.10;;;8.47;;
20525;SDS011;10421;49.142;9.232;2023-04-29T03:43:01;10.67;;;7.60;;
20525;SDS011;10421;49.142;9.232;2023-04-29T03:45:27;13.97;;;9.93;;
20525;SDS011;10421;49.142;9.232;2023-04-29T03:47:54;16.43;;;10.13;;
20525;SDS011;10421;49.142;9.232;2023-04-29T03:50:21;16.13;;;9.40;;
20525;SDS011;10421;49.142;9.232;2023-04-29T03:52:48;18.80;;;9.17;;
20525;SDS011;10421;49.142;9.232;2023-04-29T03:55:16;17.07;;;10.50;;
20525;SDS011;10421;49.142;9.232;2023-04-29T03:57:43;16.70;;;10.80;;
20525;SDS011;10421;49.142;9.232;2023-04-29T04:00:10;16.47;;;10.13;;
20525;SDS011;10421;49.142;9.232;2023-04-29T04:02:38;13.63;;;9.63;;
20525;SDS011;10421;49.142;9.232;2023-04-29T04:05:06;14.00;;;9.20;;
20525;SDS011;10421;49.142;9.232;2023-04-29T04:07:32;19.47;;;10.30;;
20525;SDS011;10421;49.142;9.232;2023-04-29T04:09:59;15.00;;;9.10;;
20525;SDS011;10421;49.142;9.232;2023-04-29T04:12:27;12.50;;;8.77;;
20525;SDS011;10421;49.142;9.232;2023-04-29T04:14:54;15.70;;;10.23;;
20525;SDS011;10421;49.142;9.232;2023-04-29T04:17:21;18.23;;;11.00;;
20525;SDS011;10421;49.142;9.232;2023-04-29T04:19:48;22.83;;;10.50;;
20525;SDS011;10421;49.142;9.232;2023-04-29T04:22:15;16.33;;;9.57;;
20525;SDS011;10421;49.142;9.232;2023-04-29T04:24:42;12.87;;;8.50;;
20525;SDS011;10421;49.142;9.232;2023-04-29T04:27:08;16.57;;;10.47;;
20525;SDS011;10421;49.142;9.232;2023-04-29T04:29:37;20.03;;;9.73;;
20525;SDS011;10421;49.142;9.232;2023-04-29T04:32:04;11.07;;;8.23;;
20525;SDS011;10421;49.142;9.232;2023-04-29T04:34:31;14.33;;;9.40;;
20525;SDS011;10421;49.142;9.232;2023-04-29T04:36:57;13.33;;;8.70;;
20525;SDS011;10421;49.142;9.232;2023-04-29T04:39:24;19.87;;;10.83;;
20525;SDS011;10421;49.142;9.232;2023-04-29T04:41:51;14.40;;;9.27;;
20525;SDS011;10421;49.142;9.232;2023-04-29T04:44:18;14.30;;;9.53;;
20525;SDS011;10421;49.142;9.232;2023-04-29T04:46:46;13.57;;;8.60;;
20525;SDS011;10421;49.142;9.232;2023-04-29T04:49:12;13.30;;;9.07;;
20525;SDS011;10421;49.142;9.232;2023-04-29T04:51:39;13.47;;;8.70;;
20525;SDS011;10421;49.142;9.232;2023-04-29T04:54:09;17.63;;;10.43;;
20525;SDS011;10421;49.142;9.232;2023-04-29T04:56:36;17.03;;;10.50;;
20525;SDS011;10421;49.142;9.232;2023-04-29T04:59:03;16.10;;;9.17;;
20525;SDS011;10421;49.142;9.232;2023-04-29T05:01:30;11.03;;;7.80;;
20525;SDS011;10421;49.142;9.232;2023-04-29T05:03:58;12.23;;;8.17;;
20525;SDS011;10421;49.142;9.232;2023-04-29T05:06:26;12.90;;;7.70;;
20525;SDS011;10421;49.142;9.232;2023-04-29T05:08:53;10.97;;;6.80;;
20525;SDS011;10421;49.142;9.232;2023-04-29T05:11:20;13.77;;;8.80;;
20525;SDS011;10421;49.142;9.232;2023-04-29T05:13:47;10.17;;;7.30;;
20525;SDS011;10421;49.142;9.232;2023-04-29T05:16:14;15.80;;;9.40;;
20525;SDS011;10421;49.142;9.232;2023-04-29T05:18:42;9.20;;;7.60;;
20525;SDS011;10421;49.142;9.232;2023-04-29T05:21:11;13.87;;;8.37;;
20525;SDS011;10421;49.142;9.232;2023-04-29T05:23:37;13.50;;;9.40;;
20525;SDS011;10421;49.142;9.232;2023-04-29T05:26:04;12.10;;;7.70;;
20525;SDS011;10421;49.142;9.232;2023-04-29T05:28:31;14.10;;;8.47;;
20525;SDS011;10421;49.142;9.232;2023-04-29T05:30:58;13.87;;;8.90;;
20525;SDS011;10421;49.142;9.232;2023-04-29T05:33:25;10.63;;;6.93;;
20525;SDS011;10421;49.142;9.232;2023-04-29T05:35:51;11.83;;;8.17;;
20525;SDS011;10421;49.142;9.232;2023-04-29T05:38:19;12.37;;;8.07;;
20525;SDS011;10421;49.142;9.232;2023-04-29T05:40:52;16.97;;;10.70;;
20525;SDS011;10421;49.142;9.232;2023-04-29T05:43:19;14.40;;;9.20;;
20525;SDS011;10421;49.142;9.232;2023-04-29T05:45:46;12.67;;;7.73;;
20525;SDS011;10421;49.142;9.232;2023-04-29T05:48:12;11.80;;;6.90;;
20525;SDS011;10421;49.142;9.232;2023-04-29T05:50:39;9.90;;;7.00;;
20525;SDS011;10421;49.142;9.232;2023-04-29T05:53:06;11.40;;;6.27;;
20525;SDS011;10421;49.142;9.232;2023-04-29T05:55:34;8.13;;;5.23;;
20525;SDS011;10421;49.142;9.232;2023-04-29T05:58:01;10.37;;;6.10;;
20525;SDS011;10421;49.142;9.232;2023-04-29T06:00:28;9.33;;;6.17;;
20525;SDS011;10421;49.142;9.232;2023-04-29T06:02:55;9.17;;;6.23;;
20525;SDS011;10421;49.142;9.232;2023-04-29T06:05:22;6.57;;;5.03;;
20525;SDS011;10421;49.142;9.232;2023-04-29T06:07:49;7.63;;;4.77;;
20525;SDS011;10421;49.142;9.232;2023-04-29T06:10:16;7.80;;;4.50;;
20525;SDS011;10421;49.142;9.232;2023-04-29T06:12:44;8.23;;;5.20;;
20525;SDS011;10421;49.142;9.232;2023-04-29T06:15:13;6.10;;;4.73;;
20525;SDS011;10421;49.142;9.232;2023-04-29T06:17:40;5.37;;;4.70;;
20525;SDS011;10421;49.142;9.232;2023-04-29T06:20:07;7.97;;;4.17;;
20525;SDS011;10421;49.142;9.232;2023-04-29T06:22:35;6.30;;;4.60;;
20525;SDS011;10421;49.142;9.232;2023-04-29T06:25:01;4.47;;;4.00;;
20525;SDS011;10421;49.142;9.232;2023-04-29T06:27:28;5.20;;;3.87;;
20525;SDS011;10421;49.142;9.232;2023-04-29T06:29:57;4.97;;;3.80;;
20525;SDS011;10421;49.142;9.232;2023-04-29T06:32:23;5.53;;;4.20;;
20525;SDS011;10421;49.142;9.232;2023-04-29T06:34:50;6.80;;;4.73;;
20525;SDS011;10421;49.142;9.232;2023-04-29T06:37:17;4.77;;;4.00;;
20525;SDS011;10421;49.142;9.232;2023-04-29T06:39:43;4.17;;;3.70;;
20525;SDS011;10421;49.142;9.232;2023-04-29T06:42:10;4.00;;;3.30;;
20525;SDS011;10421;49.142;9.232;2023-04-29T06:44:37;4.80;;;4.37;;
20525;SDS011;10421;49.142;9.232;2023-04-29T06:47:05;6.00;;;4.07;;
20525;SDS011;10421;49.142;9.232;2023-04-29T06:49:32;3.47;;;3.17;;
20525;SDS011;10421;49.142;9.232;2023-04-29T06:51:59;5.33;;;3.83;;
20525;SDS011;10421;49.142;9.232;2023-04-29T06:54:26;3.90;;;3.27;;
20525;SDS011;10421;49.142;9.232;2023-04-29T06:56:53;4.07;;;3.40;;
20525;SDS011;10421;49.142;9.232;2023-04-29T06:59:20;6.17;;;4.10;;
20525;SDS011;10421;49.142;9.232;2023-04-29T07:01:47;6.90;;;3.90;;
20525;SDS011;10421;49.142;9.232;2023-04-29T07:04:17;5.77;;;4.20;;
20525;SDS011;10421;49.142;9.232;2023-04-29T07:06:44;5.50;;;4.27;;
20525;SDS011;10421;49.142;9.232;2023-04-29T07:09:11;7.67;;;4.90;;
20525;SDS011;10421;49.142;9.232;2023-04-29T07:11:38;4.23;;;3.83;;
20525;SDS011;10421;49.142;9.232;2023-04-29T07:14:05;7.00;;;4.10;;
20525;SDS011;10421;49.142;9.232;2023-04-29T07:16:32;3.33;;;3.03;;
20525;SDS011;10421;49.142;9.232;2023-04-29T07:18:59;7.00;;;5.10;;
20525;SDS011;10421;49.142;9.232;2023-04-29T07:21:29;5.50;;;3.90;;
20525;SDS011;10421;49.142;9.232;2023-04-29T07:23:56;5.00;;;4.13;;
20525;SDS011;10421;49.142;9.232;2023-04-29T07:26:25;6.53;;;4.50;;
20525;SDS011;10421;49.142;9.232;2023-04-29T07:28:51;4.53;;;3.90;;
20525;SDS011;10421;49.142;9.232;2023-04-29T07:31:18;12.40;;;8.70;;
20525;SDS011;10421;49.142;9.232;2023-04-29T07:33:46;12.33;;;9.13;;
20525;SDS011;10421;49.142;9.232;2023-04-29T07:36:13;13.20;;;8.30;;
20525;SDS011;10421;49.142;9.232;2023-04-29T07:38:41;7.67;;;5.53;;
20525;SDS011;10421;49.142;9.232;2023-04-29T07:41:08;6.00;;;4.97;;
20525;SDS011;10421;49.142;9.232;2023-04-29T07:43:34;7.47;;;5.40;;
20525;SDS011;10421;49.142;9.232;2023-04-29T07:46:01;7.67;;;5.27;;
20525;SDS011;10421;49.142;9.232;2023-04-29T07:48:28;8.40;;;5.27;;
20525;SDS011;10421;49.142;9.232;2023-04-29T07:50:55;5.60;;;4.30;;
20525;SDS011;10421;49.142;9.232;2023-04-29T07:53:21;7.50;;;5.50;;
20525;SDS011;10421;49.142;9.232;2023-04-29T07:55:49;8.17;;;5.30;;
20525;SDS011;10421;49.142;9.232;2023-04-29T07:58:20;7.07;;;5.60;;
20525;SDS011;10421;49.142;9.232;2023-04-29T08:00:47;6.80;;;5.20;;
20525;SDS011;10421;49.142;9.232;2023-04-29T08:03:14;7.13;;;5.67;;
20525;SDS011;10421;49.142;9.232;2023-04-29T08:05:41;7.00;;;5.30;;
20525;SDS011;10421;49.142;9.232;2023-04-29T08:08:09;8.07;;;5.00;;
20525;SDS011;10421;49.142;9.232;2023-04-29T08:10:36;5.70;;;4.57;;
20525;SDS011;10421;49.142;9.232;2023-04-29T08:13:08;7.97;;;5.40;;
20525;SDS011;10421;49.142;9.232;2023-04-29T08:15:35;9.97;;;7.23;;
20525;SDS011;10421;49.142;9.232;2023-04-29T08:18:01;7.43;;;5.87;;
20525;SDS011;10421;49.142;9.232;2023-04-29T08:20:28;6.33;;;5.30;;
20525;SDS011;10421;49.142;9.232;2023-04-29T08:22:57;8.23;;;5.87;;
20525;SDS011;10421;49.142;9.232;2023-04-29T08:25:23;7.30;;;5.33;;
20525;SDS011;10421;49.142;9.232;2023-04-29T08:27:51;8.97;;;6.13;;
20525;SDS011;10421;49.142;9.232;2023-04-29T08:30:19;6.67;;;5.47;;
20525;SDS011;10421;49.142;9.232;2023-04-29T08:32:45;7.00;;;4.60;;
20525;SDS011;10421;49.142;9.232;2023-04-29T08:35:12;7.40;;;4.73;;
20525;SDS011;10421;49.142;9.232;2023-04-29T08:37:39;8.30;;;6.10;;
20525;SDS011;10421;49.142;9.232;2023-04-29T08:40:07;7.63;;;5.47;;
20525;SDS011;10421;49.142;9.232;2023-04-29T08:42:35;5.73;;;4.80;;
20525;SDS011;10421;49.142;9.232;2023-04-29T08:45:03;7.80;;;4.80;;
20525;SDS011;10421;49.142;9.232;2023-04-29T08:47:31;5.90;;;4.90;;
20525;SDS011;10421;49.142;9.232;2023-04-29T08:50:00;7.53;;;5.13;;
20525;SDS011;10421;49.142;9.232;2023-04-29T08:52:29;6.03;;;4.93;;
20525;SDS011;10421;49.142;9.232;2023-04-29T08:54:56;7.00;;;5.87;;
20525;SDS011;10421;49.142;9.232;2023-04-29T08:57:23;6.73;;;5.30;;
20525;SDS011;10421;49.142;9.232;2023-04-29T08:59:51;8.37;;;5.93;;
20525;SDS011;10421;49.142;9.232;2023-04-29T09:02:18;9.07;;;5.37;;
20525;SDS011;10421;49.142;9.232;2023-04-29T09:04:50;5.77;;;4.90;;
20525;SDS011;10421;49.142;9.232;2023-04-29T09:07:23;7.20;;;4.80;;
20525;SDS011;10421;49.142;9.232;2023-04-29T09:09:51;9.77;;;6.63;;
20525;SDS011;10421;49.142;9.232;2023-04-29T09:12:19;6.90;;;5.67;;
20525;SDS011;10421;49.142;9.232;2023-04-29T09:14:45;7.63;;;5.90;;
20525;SDS011;10421;49.142;9.232;2023-04-29T09:17:12;8.03;;;5.00;;
20525;SDS011;10421;49.142;9.232;2023-04-29T09:19:40;8.33;;;6.07;;
20525;SDS011;10421;49.142;9.232;2023-04-29T09:22:09;10.63;;;7.10;;
20525;SDS011;10421;49.142;9.232;2023-04-29T09:24:36;10.67;;;6.40;;
20525;SDS011;10421;49.142;9.232;2023-04-29T09:27:04;9.23;;;6.60;;
20525;SDS011;10421;49.142;9.232;2023-04-29T09:29:30;9.20;;;6.43;;
20525;SDS011;10421;49.142;9.232;2023-04-29T09:31:58;12.90;;;7.83;;
20525;SDS011;10421;49.142;9.232;2023-04-29T09:34:32;7.83;;;6.13;;
20525;SDS011;10421;49.142;9.232;2023-04-29T09:37:02;9.93;;;6.10;;
20525;SDS011;10421;49.142;9.232;2023-04-29T09:39:37;7.23;;;5.80;;
20525;SDS011;10421;49.142;9.232;2023-04-29T09:42:05;8.37;;;6.13;;
20525;SDS011;10421;49.142;9.232;2023-04-29T09:44:34;9.20;;;6.33;;
20525;SDS011;10421;49.142;9.232;2023-04-29T09:47:01;9.43;;;6.40;;
20525;SDS011;10421;49.142;9.232;2023-04-29T09:49:29;8.83;;;7.03;;
20525;SDS011;10421;49.142;9.232;2023-04-29T09:52:00;11.93;;;7.00;;
20525;SDS011;10421;49.142;9.232;2023-04-29T09:54:28;10.97;;;7.00;;
20525;SDS011;10421;49.142;9.232;2023-04-29T09:56:57;8.60;;;6.20;;
20525;SDS011;10421;49.142;9.232;2023-04-29T09:59:26;12.07;;;7.97;;
20525;SDS011;10421;49.142;9.232;2023-04-29T10:01:53;12.90;;;8.20;;
20525;SDS011;10421;49.142;9.232;2023-04-29T10:04:22;10.13;;;6.57;;
20525;SDS011;10421;49.142;9.232;2023-04-29T10:06:51;10.10;;;6.73;;
20525;SDS011;10421;49.142;9.232;2023-04-29T10:09:19;10.40;;;7.10;;
20525;SDS011;10421;49.142;9.232;2023-04-29T10:11:48;9.20;;;6.23;;
20525;SDS011;10421;49.142;9.232;2023-04-29T10:14:18;14.07;;;7.67;;
20525;SDS011;10421;49.142;9.232;2023-04-29T10:16:46;11.37;;;7.50;;
20525;SDS011;10421;49.142;9.232;2023-04-29T10:19:17;12.63;;;7.57;;
20525;SDS011;10421;49.142;9.232;2023-04-29T10:21:48;11.27;;;6.93;;
20525;SDS011;10421;49.142;9.232;2023-04-29T10:24:16;11.50;;;7.63;;
20525;SDS011;10421;49.142;9.232;2023-04-29T10:26:44;11.13;;;7.00;;
20525;SDS011;10421;49.142;9.232;2023-04-29T10:29:12;9.13;;;6.70;;
20525;SDS011;10421;49.142;9.232;2023-04-29T10:31:42;11.53;;;7.30;;
20525;SDS011;10421;49.142;9.232;2023-04-29T10:34:09;10.80;;;7.40;;
20525;SDS011;10421;49.142;9.232;2023-04-29T10:36:37;13.90;;;8.07;;
20525;SDS011;10421;49.142;9.232;2023-04-29T10:39:05;11.67;;;6.50;;
20525;SDS011;10421;49.142;9.232;2023-04-29T10:41:42;15.73;;;8.37;;
20525;SDS011;10421;49.142;9.232;2023-04-29T10:44:11;14.10;;;8.37;;
20525;SDS011;10421;49.142;9.232;2023-04-29T10:46:38;12.70;;;8.10;;
20525;SDS011;10421;49.142;9.232;2023-04-29T10:49:06;12.93;;;7.67;;
20525;SDS011;10421;49.142;9.232;2023-04-29T10:51:33;12.43;;;7.27;;
20525;SDS011;10421;49.142;9.232;2023-04-29T10:54:06;11.83;;;6.30;;
20525;SDS011;10421;49.142;9.232;2023-04-29T10:56:34;14.17;;;8.13;;
20525;SDS011;10421;49.142;9.232;2023-04-29T10:59:05;13.30;;;7.90;;
20525;SDS011;10421;49.142;9.232;2023-04-29T11:01:43;10.43;;;6.73;;
20525;SDS011;10421;49.142;9.232;2023-04-29T11:04:16;12.70;;;8.27;;
20525;SDS011;10421;49.142;9.232;2023-04-29T11:06:44;10.30;;;6.87;;
20525;SDS011;10421;49.142;9.232;2023-04-29T11:09:13;9.77;;;6.77;;
20525;SDS011;10421;49.142;9.232;2023-04-29T11:11:44;10.37;;;6.53;;
20525;SDS011;10421;49.142;9.232;2023-04-29T11:14:23;12.10;;;6.77;;
20525;SDS011;10421;49.142;9.232;2023-04-29T11:16:51;11.93;;;7.83;;
20525;SDS011;10421;49.142;9.232;2023-04-29T11:19:20;10.50;;;6.67;;
20525;SDS011;10421;49.142;9.232;2023-04-29T11:21:53;11.83;;;7.50;;
20525;SDS011;10421;49.142;9.232;2023-04-29T11:24:48;8.27;;;6.07;;
20525;SDS011;10421;49.142;9.232;2023-04-29T11:27:16;13.70;;;6.83;;
20525;SDS011;10421;49.142;9.232;2023-04-29T11:29:44;9.80;;;6.90;;
20525;SDS011;10421;49.142;9.232;2023-04-29T11:32:11;11.27;;;7.23;;
20525;SDS011;10421;49.142;9.232;2023-04-29T11:34:40;8.90;;;6.30;;
20525;SDS011;10421;49.142;9.232;2023-04-29T11:37:07;11.63;;;7.10;;
20525;SDS011;10421;49.142;9.232;2023-04-29T11:39:35;15.83;;;9.30;;
20525;SDS011;10421;49.142;9.232;2023-04-29T11:42:02;10.03;;;6.77;;
20525;SDS011;10421;49.142;9.232;2023-04-29T11:44:29;14.20;;;6.63;;
20525;SDS011;10421;49.142;9.232;2023-04-29T11:47:00;10.27;;;6.73;;
20525;SDS011;10421;49.142;9.232;2023-04-29T11:49:28;15.53;;;7.90;;
20525;SDS011;10421;49.142;9.232;2023-04-29T11:51:57;11.60;;;6.27;;
20525;SDS011;10421;49.142;9.232;2023-04-29T11:54:24;7.60;;;5.50;;
20525;SDS011;10421;49.142;9.232;2023-04-29T11:56:52;11.20;;;6.23;;
20525;SDS011;10421;49.142;9.232;2023-04-29T11:59:19;11.17;;;6.67;;
20525;SDS011;10421;49.142;9.232;2023-04-29T12:01:46;9.50;;;5.67;;
20525;SDS011;10421;49.142;9.232;2023-04-29T12:04:13;9.17;;;5.80;;
20525;SDS011;10421;49.142;9.232;2023-04-29T12:06:40;9.23;;;6.13;;
20525;SDS011;10421;49.142;9.232;2023-04-29T12:09:08;8.30;;;5.40;;
20525;SDS011;10421;49.142;9.232;2023-04-29T12:11:36;12.07;;;6.30;;
20525;SDS011;10421;49.142;9.232;2023-04-29T12:14:03;8.23;;;5.60;;
20525;SDS011;10421;49.142;9.232;2023-04-29T12:16:31;8.57;;;6.00;;
20525;SDS011;10421;49.142;9.232;2023-04-29T12:18:58;9.80;;;6.17;;
20525;SDS011;10421;49.142;9.232;2023-04-29T12:21:25;8.47;;;5.43;;
20525;SDS011;10421;49.142;9.232;2023-04-29T12:23:52;9.37;;;5.20;;
20525;SDS011;10421;49.142;9.232;2023-04-29T12:26:20;8.70;;;5.50;;
20525;SDS011;10421;49.142;9.232;2023-04-29T12:28:47;9.00;;;5.80;;
20525;SDS011;10421;49.142;9.232;2023-04-29T12:31:14;15.33;;;7.10;;
20525;SDS011;10421;49.142;9.232;2023-04-29T12:33:41;11.77;;;6.33;;
20525;SDS011;10421;49.142;9.232;2023-04-29T12:36:14;9.07;;;5.93;;
20525;SDS011;10421;49.142;9.232;2023-04-29T12:38:42;8.43;;;6.00;;
20525;SDS011;10421;49.142;9.232;2023-04-29T12:41:09;10.03;;;6.23;;
20525;SDS011;10421;49.142;9.232;2023-04-29T12:43:40;8.53;;;6.00;;
20525;SDS011;10421;49.142;9.232;2023-04-29T12:46:07;8.03;;;5.70;;
20525;SDS011;10421;49.142;9.232;2023-04-29T12:48:36;12.90;;;7.03;;
20525;SDS011;10421;49.142;9.232;2023-04-29T12:51:07;9.63;;;5.73;;
20525;SDS011;10421;49.142;9.232;2023-04-29T12:53:34;11.77;;;7.47;;
20525;SDS011;10421;49.142;9.232;2023-04-29T12:56:01;11.93;;;6.77;;
20525;SDS011;10421;49.142;9.232;2023-04-29T12:58:28;8.97;;;6.07;;
20525;SDS011;10421;49.142;9.232;2023-04-29T13:00:56;11.20;;;6.80;;
20525;SDS011;10421;49.142;9.232;2023-04-29T13:03:23;11.20;;;6.30;;
20525;SDS011;10421;49.142;9.232;2023-04-29T13:05:50;13.83;;;6.80;;
20525;SDS011;10421;49.142;9.232;2023-04-29T13:08:18;10.37;;;6.77;;
20525;SDS011;10421;49.142;9.232;2023-04-29T13:10:46;8.47;;;6.00;;
20525;SDS011;10421;49.142;9.232;2023-04-29T13:13:13;7.43;;;5.30;;
20525;SDS011;10421;49.142;9.232;2023-04-29T13:15:40;8.80;;;6.03;;
20525;SDS011;10421;49.142;9.232;2023-04-29T13:18:08;10.20;;;6.43;;
20525;SDS011;10421;49.142;9.232;2023-04-29T13:20:35;10.60;;;6.53;;
20525;SDS011;10421;49.142;9.232;2023-04-29T13:23:02;14.30;;;6.90;;
20525;SDS011;10421;49.142;9.232;2023-04-29T13:25:29;8.43;;;5.40;;
20525;SDS011;10421;49.142;9.232;2023-04-29T13:27:55;11.80;;;6.60;;
20525;SDS011;10421;49.142;9.232;2023-04-29T13:30:22;11.30;;;6.83;;
20525;SDS011;10421;49.142;9.232;2023-04-29T13:32:49;10.07;;;6.40;;
20525;SDS011;10421;49.142;9.232;2023-04-29T13:35:17;10.00;;;6.90;;
20525;SDS011;10421;49.142;9.232;2023-04-29T13:37:44;10.53;;;5.83;;
20525;SDS011;10421;49.142;9.232;2023-04-29T13:40:12;12.20;;;7.27;;
20525;SDS011;10421;49.142;9.232;2023-04-29T13:42:38;12.53;;;6.70;;
20525;SDS011;10421;49.142;9.232;2023-04-29T13:45:05;9.57;;;5.37;;
20525;SDS011;10421;49.142;9.232;2023-04-29T13:47:33;8.97;;;6.00;;
20525;SDS011;10421;49.142;9.232;2023-04-29T13:50:00;9.30;;;5.87;;
20525;SDS011;10421;49.142;9.232;2023-04-29T13:52:28;11.43;;;7.07;;
20525;SDS011;10421;49.142;9.232;2023-04-29T13:54:55;11.00;;;6.23;;
20525;SDS011;10421;49.142;9.232;2023-04-29T13:57:22;9.53;;;6.03;;
20525;SDS011;10421;49.142;9.232;2023-04-29T13:59:51;10.40;;;5.90;;
20525;SDS011;10421;49.142;9.232;2023-04-29T14:02:19;7.00;;;4.77;;
20525;SDS011;10421;49.142;9.232;2023-04-29T14:04:46;15.90;;;9.10;;
20525;SDS011;10421;49.142;9.232;2023-04-29T14:07:13;9.60;;;6.10;;
20525;SDS011;10421;49.142;9.232;2023-04-29T14:09:41;10.17;;;5.30;;
20525;SDS011;10421;49.142;9.232;2023-04-29T14:12:08;8.70;;;5.60;;
20525;SDS011;10421;49.142;9.232;2023-04-29T14:14:35;12.67;;;7.27;;
20525;SDS011;10421;49.142;9.232;2023-04-29T14:17:01;9.17;;;5.40;;
20525;SDS011;10421;49.142;9.232;2023-04-29T14:19:28;8.50;;;5.33;;
20525;SDS011;10421;49.142;9.232;2023-04-29T14:21:55;7.93;;;4.77;;
20525;SDS011;10421;49.142;9.232;2023-04-29T14:24:23;9.43;;;5.07;;
20525;SDS011;10421;49.142;9.232;2023-04-29T14:26:51;6.57;;;4.10;;
20525;SDS011;10421;49.142;9.232;2023-04-29T14:29:18;6.70;;;4.30;;
20525;SDS011;10421;49.142;9.232;2023-04-29T14:31:45;5.30;;;3.90;;
20525;SDS011;10421;49.142;9.232;2023-04-29T14:34:12;8.73;;;5.73;;
20525;SDS011;10421;49.142;9.232;2023-04-29T14:36:39;6.20;;;4.60;;
20525;SDS011;10421;49.142;9.232;2023-04-29T14:39:05;6.07;;;4.23;;
20525;SDS011;10421;49.142;9.232;2023-04-29T14:41:32;6.40;;;4.37;;
20525;SDS011;10421;49.142;9.232;2023-04-29T14:44:00;8.67;;;5.60;;
20525;SDS011;10421;49.142;9.232;2023-04-29T14:46:27;9.93;;;5.90;;